Address 0xf4e6300e480ed73764808538acc3257380360c77 11

Txn Hash Method
Block
From
To
Value [Txn Fee]
0x93fe99c6e7831044d0309b98beeb22b0093aea13156dba413933a7115f1046230xbef1e500139229162022-09-25 8:54:411 day 23 hrs ago0xf4e6300e480ed73764808538acc3257380360c77OUT0x2e1d0c56c6913fd6135f887080f7a14123a142a80 AVAX0.00781935 27.5
0xb36f8a2621908f199935e86190ad31f4b45f282ca9e9eeae530eb511ca34fda50x6549920d139194072022-09-25 6:57:292 days 1 hr ago0xf4e6300e480ed73764808538acc3257380360c77OUT0x2e1d0c56c6913fd6135f887080f7a14123a142a80 AVAX0.028911506223 43.389887162
0x9cea60ecf479a7cec32124a383af95a816aea454329551384bdcf418c4731d2aMint139193922022-09-25 6:56:592 days 1 hr ago0xf4e6300e480ed73764808538acc3257380360c77OUT0x128e174b7206a0beb599806d27c355fab1c9af8b0 AVAX0.00174365015 41.936845207
0x4373613e9ba20406cfc8726edd8194ddc17cf53683ab37da67f872b35cdec4ecMint139193802022-09-25 6:56:342 days 1 hr ago0xf4e6300e480ed73764808538acc3257380360c77OUT0x128e174b7206a0beb599806d27c355fab1c9af8b0 AVAX0.001706642776 41.046774168
0xa9893b99ed19ab87b8e93aa68e29e91de83aeaaa0361bf7faa3836a0b6c36736Claim Reward139193562022-09-25 6:55:472 days 1 hr ago0xf4e6300e480ed73764808538acc3257380360c77OUT0x41102fb90121896e52868c0882dcbc74f9ca76060 AVAX0.00340858017 38.275000511
0xb8513fe8f27c5818b4b0302f23c291b40aa487ae2deb858c957522c05cb75728Harvest138973962022-09-24 19:46:372 days 12 hrs ago0xf4e6300e480ed73764808538acc3257380360c77OUT0x951accccfdf619d3cd8cfe0e4823d8e80354eb410 AVAX0.002663133719 32.507766061
0x26fa0da10c79af16e5649b5ac555f4009a82a6e5bf82a144098077d17da670320x8a6655d6138778242022-09-24 8:53:412 days 23 hrs ago0xf4e6300e480ed73764808538acc3257380360c77OUT0x41102fb90121896e52868c0882dcbc74f9ca76060 AVAX0.003361215 27.5
0x3920b0ad4e21fda9f000db2299f2e85edd20310edbb255c624f67b355a6990f6Harvest138762252022-09-24 8:00:223 days 36 mins ago0xf4e6300e480ed73764808538acc3257380360c77OUT0x951accccfdf619d3cd8cfe0e4823d8e80354eb410 AVAX0.002285746371 27.901155611
0x4434701526b8f7e70c269d53dab45c3cb0c8dbf62912b54a91b729d5de08c7910x6549920d138759202022-09-24 7:50:123 days 46 mins ago0xf4e6300e480ed73764808538acc3257380360c77OUT0x2e1d0c56c6913fd6135f887080f7a14123a142a80 AVAX0.018372134263 27.571918425
0x5deaebef3d50a56d879928f82c0d9a52fc1554b35c28522fe0dcf52c438e1afcApprove138759072022-09-24 7:49:473 days 47 mins ago0xf4e6300e480ed73764808538acc3257380360c77OUT0x128e174b7206a0beb599806d27c355fab1c9af8b0 AVAX0.0012741025 27.5
0x47cec08406a22bcfe4c032787bcaef37276fd15494ad2c69de3fece1d6d11849Mint138758942022-09-24 7:49:203 days 47 mins ago0xf4e6300e480ed73764808538acc3257380360c77OUT0x128e174b7206a0beb599806d27c355fab1c9af8b0 AVAX0.001169114951 28.118595216
0x1b9a338c5da7021c233b8c8222c77d600bc6cf21299d504a45abf71c9798c239Mint138758802022-09-24 7:48:523 days 48 mins ago0xf4e6300e480ed73764808538acc3257380360c77OUT0x128e174b7206a0beb599806d27c355fab1c9af8b0 AVAX0.001638959412 27.931412332
0x9d7d18c43636b806fb4f4e62f136b51afea319b6fc443fbc7874224b2817f4900xab07211e138758582022-09-24 7:48:083 days 48 mins ago0xf4e6300e480ed73764808538acc3257380360c77OUT0x2e1d0c56c6913fd6135f887080f7a14123a142a80 AVAX0.00686579702 28.254890101
0xe680ae7009ca0f5c16f1bbe1466098310f5b9d989d3b6643e1da13a0cd0b7a4c0x4ea4c6b3138758312022-09-24 7:47:133 days 49 mins ago0xf4e6300e480ed73764808538acc3257380360c77OUT0x2e1d0c56c6913fd6135f887080f7a14123a142a80 AVAX0.007618739061 27.668084418
0x601252edf3c29debecc732431ffb6ef8939aca696b10394e9c4538735ab19152Provide Liquidit...138758102022-09-24 7:46:323 days 50 mins ago0xf4e6300e480ed73764808538acc3257380360c77OUT0x2e1d0c56c6913fd6135f887080f7a14123a142a80 AVAX0.002377705 27.5
0x40712cc23537eac06a1b441fad70c953facf310e4d1fb79e78b3e3232f26d340Claim138757822022-09-24 7:45:363 days 51 mins ago0xf4e6300e480ed73764808538acc3257380360c77OUT0xba818c3a8c961e22be7b399b14cd384c08dd94a90 AVAX0.0018661775 27.5
0x56cfb998f4aca34d62625890dfc3e31e92c9d5eb9b12ecb629443a37b096b74b0x8a6655d6138374702022-09-23 10:27:393 days 22 hrs ago0xf4e6300e480ed73764808538acc3257380360c77OUT0xba818c3a8c961e22be7b399b14cd384c08dd94a90 AVAX0.003227015 27.5
0xfc8fd5ac6735b88dd7a92a95026ad56675a1356cc9f8d2f92d153ebe8e9afd740xbef1e500138337362022-09-23 8:23:084 days 13 mins ago0xf4e6300e480ed73764808538acc3257380360c77OUT0x2e1d0c56c6913fd6135f887080f7a14123a142a80 AVAX0.00781935 27.5
0xdd384a69f54ecf227dda5cadb5b1231e0b9859e85b09bb408af3e4ddce768bc60x6549920d138311252022-09-23 6:56:034 days 1 hr ago0xf4e6300e480ed73764808538acc3257380360c77OUT0x2e1d0c56c6913fd6135f887080f7a14123a142a80 AVAX0.019906519805 32.683736228
0xc6853bf827851162944d841278be1e1d76028b2eb0ff51494c9e8a2c115be58cMint138311072022-09-23 6:55:274 days 1 hr ago0xf4e6300e480ed73764808538acc3257380360c77OUT0x0faf4bf0bf669cad5a3ce24839abc9d143d0cb7e0 AVAX0.001374499413 33.058334048
0xee48299bfd9ea1a050e0123d0419c2c71456fbbc3993cfb2afa8af6ab6535a30Claim Reward138310842022-09-23 6:54:414 days 1 hr ago0xf4e6300e480ed73764808538acc3257380360c77OUT0x41102fb90121896e52868c0882dcbc74f9ca76060 AVAX0.002866444969 32.187355786
0x234175ab7a1b1b95f8caeaf0f7c52ede395cc149ce16016d318da840d062bceeHarvest138103822022-09-22 19:19:314 days 13 hrs ago0xf4e6300e480ed73764808538acc3257380360c77OUT0x951accccfdf619d3cd8cfe0e4823d8e80354eb410 AVAX0.00177925 27.5
0xc161a23da27d2ca7c87ff0507055246403b3e5c4b0b61e3c830c5d7b0db8e66bHarvest137914112022-09-22 8:47:064 days 23 hrs ago0xf4e6300e480ed73764808538acc3257380360c77OUT0x951accccfdf619d3cd8cfe0e4823d8e80354eb410 AVAX0.002380008869 29.051778732
0x196db0b53c568a8b89d18b4206ac614ae554efee6a0fd5abe9529666658c6a0f0x8a6655d6137910532022-09-22 8:35:085 days 1 min ago0xf4e6300e480ed73764808538acc3257380360c77OUT0x41102fb90121896e52868c0882dcbc74f9ca76060 AVAX0.003361215 27.5
0x49c5e7293402d79bd3c466c2716f01b4a30a6257a1f3a2a6320fb3f78d77b32e0x6549920d137888832022-09-22 7:22:505 days 1 hr ago0xf4e6300e480ed73764808538acc3257380360c77OUT0x2e1d0c56c6913fd6135f887080f7a14123a142a80 AVAX0.027103550799 43.284168533
[ Download CSV Export 
Parent Txn Hash Block From To Value
Loading

Contract Name:
0

Compiler Version
0

Optimization Enabled:
0

Other Settings:
-NA-
Block Transaction Gas Used Reward
Age Block Fee Address BC Fee Address Voting Power Jailed Incoming
Block Uncle Number Difficulty Gas Used Reward
Loading